Time;durP1;ratioP1;P1;durP2;ratioP2;P2;SDS_P1;SDS_P2;PMS_P1;PMS_P2;Temp;Humidity;BMP_temperature;BMP_pressure;BME280_temperature;BME280_humidity;BME280_pressure;Samples;Min_cycle;Max_cycle;Signal;HPM_P1;HPM_P2
2021/03/30 00:02:12;;;;;;;15.20;7.77;;;;;;;;;;5053314;28;20605;-59
2021/03/30 00:04:39;;;;;;;14.63;7.67;;;;;;;;;;5053537;28;20579;-58
2021/03/30 00:07:05;;;;;;;16.50;7.67;;;;;;;;;;5052736;28;20256;-57
2021/03/30 00:09:32;;;;;;;12.77;7.30;;;;;;;;;;5053650;28;20205;-62
2021/03/30 00:11:59;;;;;;;13.40;7.07;;;;;;;;;;5053736;28;20714;-56
2021/03/30 00:14:26;;;;;;;14.33;7.27;;;;;;;;;;5054365;28;20209;-59
2021/03/30 00:16:53;;;;;;;14.27;7.53;;;;;;;;;;5055758;28;20566;-61
2021/03/30 00:19:20;;;;;;;15.23;6.90;;;;;;;;;;5056235;28;20202;-59
2021/03/30 00:21:47;;;;;;;15.93;8.23;;;;;;;;;;5055293;28;20252;-59
2021/03/30 00:24:13;;;;;;;19.23;8.17;;;;;;;;;;5054149;28;20221;-61
2021/03/30 00:26:40;;;;;;;16.17;8.10;;;;;;;;;;5058333;28;20202;-60
2021/03/30 00:29:07;;;;;;;16.00;7.43;;;;;;;;;;5058383;28;20229;-61
2021/03/30 00:31:33;;;;;;;16.63;7.53;;;;;;;;;;5056648;28;20275;-59
2021/03/30 00:34:00;;;;;;;15.57;7.50;;;;;;;;;;5052888;28;20213;-60
2021/03/30 00:36:27;;;;;;;13.30;7.73;;;;;;;;;;5052523;28;20214;-59
2021/03/30 00:38:54;;;;;;;11.83;8.10;;;;;;;;;;5052675;28;20255;-61
2021/03/30 00:41:21;;;;;;;16.30;8.30;;;;;;;;;;5052604;28;20247;-61
2021/03/30 00:43:47;;;;;;;17.80;8.07;;;;;;;;;;5052802;28;20279;-60
2021/03/30 00:46:14;;;;;;;15.33;8.13;;;;;;;;;;5052605;28;20300;-58
2021/03/30 00:48:44;;;;;;;13.87;7.73;;;;;;;;;;5052176;28;20701;-60
2021/03/30 00:51:11;;;;;;;14.10;8.17;;;;;;;;;;5052519;28;20628;-59
2021/03/30 00:53:38;;;;;;;15.57;8.43;;;;;;;;;;5052494;28;20689;-60
2021/03/30 00:56:05;;;;;;;16.07;8.40;;;;;;;;;;5052625;28;20208;-61
2021/03/30 00:58:32;;;;;;;13.97;8.00;;;;;;;;;;5051984;28;20206;-60
2021/03/30 01:00:58;;;;;;;14.53;7.63;;;;;;;;;;5052359;28;20210;-60
2021/03/30 01:03:25;;;;;;;14.03;8.33;;;;;;;;;;5052204;28;20610;-60
2021/03/30 01:05:51;;;;;;;15.33;8.57;;;;;;;;;;5052298;28;20201;-60
2021/03/30 01:08:29;;;;;;;13.80;8.13;;;;;;;;;;5052665;28;20252;-60
2021/03/30 01:11:00;;;;;;;16.17;8.13;;;;;;;;;;5052343;28;20205;-61
2021/03/30 01:13:33;;;;;;;14.20;7.90;;;;;;;;;;5052128;28;20205;-59
2021/03/30 01:16:01;;;;;;;16.50;7.73;;;;;;;;;;5052091;28;20228;-58
2021/03/30 01:18:29;;;;;;;14.17;8.07;;;;;;;;;;5051936;28;20208;-61
2021/03/30 01:21:10;;;;;;;12.27;7.93;;;;;;;;;;5052016;28;20209;-58
2021/03/30 01:23:57;;;;;;;15.23;8.23;;;;;;;;;;5050199;28;20704;-58
2021/03/30 01:26:37;;;;;;;15.23;7.80;;;;;;;;;;5051780;28;20585;-60
2021/03/30 01:29:39;;;;;;;15.77;8.77;;;;;;;;;;5051674;28;20225;-59
2021/03/30 01:32:10;;;;;;;15.93;8.70;;;;;;;;;;4990276;28;20791;-59
2021/03/30 01:34:37;;;;;;;16.87;8.63;;;;;;;;;;5041301;28;20218;-59
2021/03/30 01:37:04;;;;;;;15.20;8.27;;;;;;;;;;5051623;28;20263;-60
2021/03/30 01:39:31;;;;;;;18.10;9.00;;;;;;;;;;5051728;28;20213;-60
2021/03/30 01:41:58;;;;;;;16.90;8.70;;;;;;;;;;5051665;28;20236;-59
2021/03/30 01:44:25;;;;;;;18.70;9.07;;;;;;;;;;5051815;28;20209;-60
2021/03/30 01:46:52;;;;;;;20.03;9.37;;;;;;;;;;5051638;28;20288;-60
2021/03/30 01:49:20;;;;;;;15.10;8.93;;;;;;;;;;5051215;28;20601;-59
2021/03/30 01:51:47;;;;;;;12.07;7.97;;;;;;;;;;5051920;28;20255;-58
2021/03/30 01:54:14;;;;;;;20.90;9.13;;;;;;;;;;5051756;28;20213;-61
2021/03/30 01:56:42;;;;;;;17.60;9.43;;;;;;;;;;5051615;28;20236;-59
2021/03/30 01:59:09;;;;;;;15.13;9.27;;;;;;;;;;5051192;28;20197;-61
2021/03/30 02:01:36;;;;;;;19.00;9.63;;;;;;;;;;5051587;28;20264;-60
2021/03/30 02:04:04;;;;;;;16.93;9.20;;;;;;;;;;5051706;28;20217;-57
2021/03/30 02:06:32;;;;;;;16.97;8.90;;;;;;;;;;5051934;28;20209;-60
2021/03/30 02:09:01;;;;;;;14.70;8.60;;;;;;;;;;5051140;28;20234;-61
2021/03/30 02:11:30;;;;;;;17.50;8.83;;;;;;;;;;5051473;28;20225;-61
2021/03/30 02:13:58;;;;;;;19.40;9.07;;;;;;;;;;5051507;28;20217;-61
2021/03/30 02:16:26;;;;;;;16.70;9.27;;;;;;;;;;5051261;28;20213;-60
2021/03/30 02:18:56;;;;;;;18.03;8.50;;;;;;;;;;5051360;28;20210;-61
2021/03/30 02:21:25;;;;;;;17.97;9.53;;;;;;;;;;5051248;28;20222;-61
2021/03/30 02:23:52;;;;;;;17.77;9.10;;;;;;;;;;5051592;28;20202;-60
2021/03/30 02:26:19;;;;;;;14.93;8.87;;;;;;;;;;5051301;28;20214;-61
2021/03/30 02:28:49;;;;;;;17.63;9.33;;;;;;;;;;5050886;28;20230;-61
2021/03/30 02:31:17;;;;;;;22.40;10.13;;;;;;;;;;5050952;28;20702;-61
2021/03/30 02:33:46;;;;;;;17.83;9.53;;;;;;;;;;5051801;28;20206;-60
2021/03/30 02:36:13;;;;;;;14.80;8.70;;;;;;;;;;5055173;28;20679;-61
2021/03/30 02:38:40;;;;;;;16.97;9.20;;;;;;;;;;5054929;28;20209;-60
2021/03/30 02:41:07;;;;;;;14.47;8.67;;;;;;;;;;5054991;28;20209;-59
2021/03/30 02:43:35;;;;;;;18.77;9.03;;;;;;;;;;5055018;28;20206;-60
2021/03/30 02:46:03;;;;;;;16.10;8.77;;;;;;;;;;5055282;28;20209;-60
2021/03/30 02:48:30;;;;;;;20.47;8.90;;;;;;;;;;5054523;28;20702;-61
2021/03/30 02:50:57;;;;;;;16.00;9.50;;;;;;;;;;5055148;28;20217;-61
2021/03/30 02:53:24;;;;;;;15.60;9.10;;;;;;;;;;5055070;28;20205;-60
2021/03/30 02:55:50;;;;;;;15.87;8.33;;;;;;;;;;5054683;28;20202;-60
2021/03/30 02:58:18;;;;;;;17.23;9.17;;;;;;;;;;5055390;28;20255;-60
2021/03/30 03:00:45;;;;;;;24.00;10.13;;;;;;;;;;5055317;28;20689;-59
2021/03/30 03:03:12;;;;;;;19.97;9.80;;;;;;;;;;5055477;28;20230;-58
2021/03/30 03:05:39;;;;;;;19.57;9.87;;;;;;;;;;5055278;28;20206;-58
2021/03/30 03:08:06;;;;;;;18.67;9.97;;;;;;;;;;5054830;28;20226;-60
2021/03/30 03:10:32;;;;;;;16.33;9.23;;;;;;;;;;5054689;28;20201;-61
2021/03/30 03:13:00;;;;;;;18.80;9.83;;;;;;;;;;5054777;28;20233;-61
2021/03/30 03:15:27;;;;;;;17.17;9.40;;;;;;;;;;5054889;28;20205;-61
2021/03/30 03:17:54;;;;;;;20.27;10.33;;;;;;;;;;5054367;28;20205;-61
2021/03/30 03:20:20;;;;;;;17.03;9.40;;;;;;;;;;5054755;28;20209;-61
2021/03/30 03:22:47;;;;;;;17.87;10.00;;;;;;;;;;5054549;28;20229;-61
2021/03/30 03:25:14;;;;;;;17.17;10.03;;;;;;;;;;5055287;28;20712;-60
2021/03/30 03:27:41;;;;;;;17.30;10.30;;;;;;;;;;5054530;28;20228;-60
2021/03/30 03:30:09;;;;;;;20.40;10.50;;;;;;;;;;5054853;28;20213;-60
2021/03/30 03:32:36;;;;;;;22.07;10.27;;;;;;;;;;5055029;28;20236;-60
2021/03/30 03:35:03;;;;;;;19.70;10.63;;;;;;;;;;5054604;28;20221;-61
2021/03/30 03:37:30;;;;;;;19.50;10.07;;;;;;;;;;5053889;28;20206;-60
2021/03/30 03:39:56;;;;;;;18.97;10.70;;;;;;;;;;5054185;28;20296;-60
2021/03/30 03:42:23;;;;;;;19.23;11.03;;;;;;;;;;5054366;28;20225;-60
2021/03/30 03:44:50;;;;;;;18.47;10.77;;;;;;;;;;5053565;28;20217;-60
2021/03/30 03:47:22;;;;;;;18.90;10.77;;;;;;;;;;5054375;28;20217;-60
2021/03/30 03:49:49;;;;;;;18.83;10.20;;;;;;;;;;5054117;28;20205;-59
2021/03/30 03:52:16;;;;;;;25.80;10.43;;;;;;;;;;5054146;28;20221;-60
2021/03/30 03:54:43;;;;;;;16.93;10.50;;;;;;;;;;5055229;28;20210;-60
2021/03/30 03:57:13;;;;;;;21.37;10.93;;;;;;;;;;5054340;28;20214;-60
2021/03/30 03:59:43;;;;;;;20.60;10.20;;;;;;;;;;5053538;28;20201;-60
2021/03/30 04:02:12;;;;;;;23.90;10.57;;;;;;;;;;5053636;28;20226;-61
2021/03/30 04:04:42;;;;;;;20.50;10.97;;;;;;;;;;5053507;28;20205;-61
2021/03/30 04:07:14;;;;;;;20.50;10.87;;;;;;;;;;5053683;28;20209;-59
2021/03/30 04:09:41;;;;;;;24.77;11.60;;;;;;;;;;5053417;28;20225;-60
2021/03/30 04:12:09;;;;;;;22.70;11.40;;;;;;;;;;5053316;28;20233;-58
2021/03/30 04:14:36;;;;;;;20.43;11.47;;;;;;;;;;5053408;28;20216;-61
2021/03/30 04:17:02;;;;;;;25.77;12.20;;;;;;;;;;5050846;28;20654;-56
2021/03/30 04:19:29;;;;;;;21.03;11.53;;;;;;;;;;5052880;28;20232;-55
2021/03/30 04:21:55;;;;;;;23.07;12.17;;;;;;;;;;5056157;28;20679;-60
2021/03/30 04:24:23;;;;;;;21.83;12.47;;;;;;;;;;5056195;28;20206;-60
2021/03/30 04:26:49;;;;;;;26.27;12.57;;;;;;;;;;5053238;28;20205;-57
2021/03/30 04:29:16;;;;;;;23.97;12.57;;;;;;;;;;5054728;28;20238;-61
2021/03/30 04:31:42;;;;;;;23.83;12.53;;;;;;;;;;5055530;28;20236;-60
2021/03/30 04:34:09;;;;;;;24.90;12.73;;;;;;;;;;5055928;28;20595;-60
2021/03/30 04:36:35;;;;;;;25.37;13.03;;;;;;;;;;5054180;28;20209;-60
2021/03/30 04:39:02;;;;;;;24.57;12.93;;;;;;;;;;5052806;28;20211;-61
2021/03/30 04:41:29;;;;;;;27.23;12.93;;;;;;;;;;5052561;28;20596;-60
2021/03/30 04:43:56;;;;;;;27.70;13.13;;;;;;;;;;5052501;28;20213;-61
2021/03/30 04:46:22;;;;;;;26.73;13.37;;;;;;;;;;5052333;28;20558;-60
2021/03/30 04:48:49;;;;;;;25.57;12.97;;;;;;;;;;5052207;28;20225;-59
2021/03/30 04:51:15;;;;;;;26.70;12.70;;;;;;;;;;5052450;28;20235;-60
2021/03/30 04:53:42;;;;;;;29.33;12.87;;;;;;;;;;5052296;28;20236;-59
2021/03/30 04:56:08;;;;;;;24.13;12.63;;;;;;;;;;5051716;28;20216;-60
2021/03/30 04:58:36;;;;;;;25.53;13.27;;;;;;;;;;5051766;28;20216;-61
2021/03/30 05:01:02;;;;;;;25.80;12.83;;;;;;;;;;5052994;28;20205;-61
2021/03/30 05:03:29;;;;;;;25.00;12.93;;;;;;;;;;5053196;28;20212;-62
2021/03/30 05:05:55;;;;;;;25.17;13.07;;;;;;;;;;5053005;28;20209;-61
2021/03/30 05:08:22;;;;;;;23.33;12.20;;;;;;;;;;5052483;28;20224;-61
2021/03/30 05:10:50;;;;;;;24.97;12.10;;;;;;;;;;5052900;28;20206;-62
2021/03/30 05:13:17;;;;;;;24.50;13.00;;;;;;;;;;5052319;28;20263;-61
2021/03/30 05:15:44;;;;;;;24.73;13.10;;;;;;;;;;5052618;28;20654;-62
2021/03/30 05:18:11;;;;;;;27.63;13.63;;;;;;;;;;5051890;28;20745;-62
2021/03/30 05:20:37;;;;;;;23.50;12.10;;;;;;;;;;5052598;28;20220;-62
2021/03/30 05:23:04;;;;;;;19.83;11.80;;;;;;;;;;5052261;28;20620;-61
2021/03/30 05:25:30;;;;;;;24.73;11.77;;;;;;;;;;5052160;28;20212;-59
2021/03/30 05:27:57;;;;;;;24.43;11.53;;;;;;;;;;5051450;28;20228;-62
2021/03/30 05:30:24;;;;;;;21.57;11.57;;;;;;;;;;5052299;28;20641;-62
2021/03/30 05:32:51;;;;;;;27.37;13.40;;;;;;;;;;5052011;28;20232;-62
2021/03/30 05:35:18;;;;;;;28.37;12.77;;;;;;;;;;5051749;28;20704;-61
2021/03/30 05:37:44;;;;;;;23.57;12.77;;;;;;;;;;5051698;28;20667;-60
2021/03/30 05:40:12;;;;;;;26.17;13.10;;;;;;;;;;5051841;28;20205;-62
2021/03/30 05:42:39;;;;;;;24.43;12.83;;;;;;;;;;5051642;28;20234;-61
2021/03/30 05:45:06;;;;;;;26.77;12.90;;;;;;;;;;5051900;28;20222;-61
2021/03/30 05:47:32;;;;;;;21.73;12.90;;;;;;;;;;5052007;28;20583;-61
2021/03/30 05:50:01;;;;;;;22.07;13.20;;;;;;;;;;5052140;28;20220;-59
2021/03/30 05:52:32;;;;;;;25.10;13.47;;;;;;;;;;5051707;28;20748;-63
2021/03/30 05:54:59;;;;;;;27.47;12.83;;;;;;;;;;5051464;28;20220;-62
2021/03/30 05:57:26;;;;;;;25.00;13.37;;;;;;;;;;5052257;28;20209;-61
2021/03/30 05:59:54;;;;;;;26.77;12.90;;;;;;;;;;5051880;28;20209;-62
2021/03/30 06:02:22;;;;;;;28.23;13.83;;;;;;;;;;5051961;28;20226;-62
2021/03/30 06:04:49;;;;;;;27.13;12.63;;;;;;;;;;5051739;28;20213;-62
2021/03/30 06:07:17;;;;;;;24.00;12.67;;;;;;;;;;5051578;28;20267;-62
2021/03/30 06:09:44;;;;;;;24.97;12.53;;;;;;;;;;5055565;28;20224;-61
2021/03/30 06:12:11;;;;;;;21.83;11.53;;;;;;;;;;5056482;28;20230;-61
2021/03/30 06:14:39;;;;;;;27.17;12.40;;;;;;;;;;5056430;28;20210;-61
2021/03/30 06:17:06;;;;;;;26.63;12.93;;;;;;;;;;5055941;28;20678;-61
2021/03/30 06:19:46;;;;;;;25.83;13.47;;;;;;;;;;5055939;28;20229;-62
2021/03/30 06:22:13;;;;;;;24.60;13.13;;;;;;;;;;5055887;28;20808;-60
2021/03/30 06:24:40;;;;;;;25.13;12.83;;;;;;;;;;5056202;28;20209;-62
2021/03/30 06:27:23;;;;;;;24.80;13.33;;;;;;;;;;5056065;28;20609;-61
2021/03/30 06:29:50;;;;;;;25.80;13.53;;;;;;;;;;5055343;28;20641;-60
2021/03/30 06:32:17;;;;;;;28.87;14.23;;;;;;;;;;5055143;28;20252;-62
2021/03/30 06:34:44;;;;;;;22.47;12.53;;;;;;;;;;5055233;28;20220;-62
2021/03/30 06:37:30;;;;;;;28.47;13.70;;;;;;;;;;5055167;28;20568;-62
2021/03/30 06:39:59;;;;;;;23.83;13.27;;;;;;;;;;5055032;28;20240;-59
2021/03/30 06:42:30;;;;;;;23.53;12.37;;;;;;;;;;5055159;28;20313;-60
2021/03/30 06:44:57;;;;;;;26.37;11.50;;;;;;;;;;5055511;28;20252;-59
2021/03/30 06:47:23;;;;;;;24.47;12.87;;;;;;;;;;5055957;28;20210;-61
2021/03/30 06:49:54;;;;;;;20.63;11.73;;;;;;;;;;5054658;28;20221;-60
2021/03/30 06:52:21;;;;;;;22.20;11.77;;;;;;;;;;5054891;28;20323;-61
2021/03/30 06:55:06;;;;;;;26.77;12.43;;;;;;;;;;5054688;28;20209;-61
2021/03/30 06:57:36;;;;;;;22.87;12.87;;;;;;;;;;5054724;28;20206;-60
2021/03/30 07:00:04;;;;;;;21.20;12.33;;;;;;;;;;5054606;28;20208;-61
2021/03/30 07:02:31;;;;;;;21.33;12.17;;;;;;;;;;5054886;28;20605;-61
2021/03/30 07:04:58;;;;;;;25.30;13.23;;;;;;;;;;5054729;28;20206;-61
2021/03/30 07:07:24;;;;;;;22.53;12.93;;;;;;;;;;5054676;28;20207;-61
2021/03/30 07:09:52;;;;;;;23.80;13.07;;;;;;;;;;5053954;28;20229;-61
2021/03/30 07:12:22;;;;;;;26.40;13.43;;;;;;;;;;5054722;28;20261;-61
2021/03/30 07:14:49;;;;;;;24.33;13.60;;;;;;;;;;5054506;28;20240;-61
2021/03/30 07:17:18;;;;;;;28.23;14.17;;;;;;;;;;5054785;28;20339;-61
2021/03/30 07:19:45;;;;;;;22.57;13.03;;;;;;;;;;5053156;28;20709;-60
2021/03/30 07:22:13;;;;;;;28.80;13.90;;;;;;;;;;5054393;28;20225;-61
2021/03/30 07:24:41;;;;;;;27.03;14.60;;;;;;;;;;5054187;28;20216;-61
2021/03/30 07:27:13;;;;;;;24.83;14.20;;;;;;;;;;5054414;28;20201;-61
2021/03/30 07:29:42;;;;;;;24.67;13.63;;;;;;;;;;5053890;28;20230;-62
2021/03/30 07:32:13;;;;;;;28.27;15.23;;;;;;;;;;5053952;28;20225;-62
2021/03/30 07:34:43;;;;;;;26.03;14.57;;;;;;;;;;5054175;28;20575;-62
2021/03/30 07:37:11;;;;;;;29.20;14.70;;;;;;;;;;5053867;28;20211;-62
2021/03/30 07:39:44;;;;;;;25.77;14.77;;;;;;;;;;5053150;28;20294;-60
2021/03/30 07:42:11;;;;;;;25.40;15.47;;;;;;;;;;5051980;28;20230;-61
2021/03/30 07:44:38;;;;;;;26.37;14.90;;;;;;;;;;5053042;28;20352;-60
2021/03/30 07:47:05;;;;;;;26.10;15.07;;;;;;;;;;5053670;28;20206;-61
2021/03/30 07:49:32;;;;;;;27.30;15.37;;;;;;;;;;5053387;28;20231;-62
2021/03/30 07:52:13;;;;;;;28.20;16.30;;;;;;;;;;5053701;28;20234;-61
2021/03/30 07:54:40;;;;;;;29.47;16.33;;;;;;;;;;5054057;28;20207;-62
2021/03/30 07:57:08;;;;;;;30.00;16.40;;;;;;;;;;5052362;28;20252;-61
2021/03/30 07:59:48;;;;;;;28.27;16.47;;;;;;;;;;5052237;28;20209;-61
2021/03/30 08:02:17;;;;;;;34.17;16.60;;;;;;;;;;5053503;28;20228;-62
2021/03/30 08:05:04;;;;;;;31.60;16.93;;;;;;;;;;5053227;28;20667;-61
2021/03/30 08:07:47;;;;;;;30.40;17.10;;;;;;;;;;5053530;28;20209;-62
2021/03/30 08:10:30;;;;;;;33.50;18.40;;;;;;;;;;5053251;28;20205;-61
2021/03/30 08:13:16;;;;;;;34.80;18.97;;;;;;;;;;5053624;28;20263;-61
2021/03/30 08:15:43;;;;;;;29.77;18.53;;;;;;;;;;5053349;28;20231;-61
2021/03/30 08:18:10;;;;;;;30.67;17.43;;;;;;;;;;5053025;28;20209;-60
2021/03/30 08:20:51;;;;;;;45.63;18.30;;;;;;;;;;5052989;28;20684;-59
2021/03/30 08:23:18;;;;;;;41.50;19.00;;;;;;;;;;5053325;28;20241;-61
2021/03/30 08:25:47;;;;;;;36.90;19.53;;;;;;;;;;5052960;28;20220;-61
2021/03/30 08:28:29;;;;;;;33.53;19.00;;;;;;;;;;5053082;28;20228;-59
2021/03/30 08:30:59;;;;;;;29.37;17.47;;;;;;;;;;5054997;28;20215;-62
2021/03/30 08:33:32;;;;;;;33.93;17.30;;;;;;;;;;5055986;28;20243;-62
2021/03/30 08:36:17;;;;;;;30.80;17.60;;;;;;;;;;5053618;28;20205;-59
2021/03/30 08:38:45;;;;;;;27.50;15.97;;;;;;;;;;5055523;28;20251;-62
2021/03/30 08:41:12;;;;;;;31.77;18.20;;;;;;;;;;5056566;28;20253;-62
2021/03/30 08:43:46;;;;;;;34.00;19.17;;;;;;;;;;5055452;28;20220;-61
2021/03/30 08:46:13;;;;;;;31.77;19.00;;;;;;;;;;5052971;28;20205;-61
2021/03/30 08:48:40;;;;;;;37.40;19.97;;;;;;;;;;5052511;28;20591;-61
2021/03/30 08:51:08;;;;;;;35.77;19.93;;;;;;;;;;5052825;28;20212;-62
2021/03/30 08:53:35;;;;;;;36.73;19.90;;;;;;;;;;5053337;28;20201;-61
2021/03/30 08:56:09;;;;;;;33.87;19.03;;;;;;;;;;5052601;28;20208;-62
2021/03/30 08:58:37;;;;;;;32.53;18.90;;;;;;;;;;5052444;28;20555;-61
2021/03/30 09:01:07;;;;;;;30.13;17.90;;;;;;;;;;5052943;28;20216;-61
2021/03/30 09:03:33;;;;;;;33.03;19.30;;;;;;;;;;5052406;28;20206;-60
2021/03/30 09:06:00;;;;;;;33.40;18.87;;;;;;;;;;5052341;28;20217;-61
2021/03/30 09:08:39;;;;;;;33.53;18.13;;;;;;;;;;5051868;28;20229;-61
2021/03/30 09:11:16;;;;;;;30.47;17.57;;;;;;;;;;5052128;28;20209;-62
2021/03/30 09:13:43;;;;;;;30.23;17.90;;;;;;;;;;5052243;28;20208;-62
2021/03/30 09:16:10;;;;;;;31.83;17.17;;;;;;;;;;5052435;28;20232;-62
2021/03/30 09:18:37;;;;;;;31.10;16.33;;;;;;;;;;5051744;28;20216;-62
2021/03/30 09:21:07;;;;;;;34.23;17.67;;;;;;;;;;5052102;28;20259;-59
2021/03/30 09:23:34;;;;;;;30.53;17.07;;;;;;;;;;5051850;28;20236;-61
2021/03/30 09:26:01;;;;;;;36.23;17.57;;;;;;;;;;5051966;28;20206;-62
2021/03/30 09:28:28;;;;;;;33.20;17.23;;;;;;;;;;5051633;28;20323;-61
2021/03/30 09:30:55;;;;;;;29.47;17.00;;;;;;;;;;5051802;28;20210;-61
2021/03/30 09:33:22;;;;;;;28.33;16.50;;;;;;;;;;5052189;28;20271;-61
2021/03/30 09:35:48;;;;;;;29.43;17.17;;;;;;;;;;5051544;28;20612;-61
2021/03/30 09:38:16;;;;;;;30.70;16.40;;;;;;;;;;5051839;28;20202;-61
2021/03/30 09:40:43;;;;;;;28.73;15.83;;;;;;;;;;5051738;28;20297;-61
2021/03/30 09:43:11;;;;;;;28.87;16.23;;;;;;;;;;5051386;28;20225;-61
2021/03/30 09:45:39;;;;;;;27.10;15.80;;;;;;;;;;5051974;28;20209;-61
2021/03/30 09:48:07;;;;;;;25.77;14.67;;;;;;;;;;5051120;28;20205;-61
2021/03/30 09:50:34;;;;;;;27.70;14.93;;;;;;;;;;5051502;28;20209;-62
2021/03/30 09:53:05;;;;;;;26.53;14.73;;;;;;;;;;5051453;28;20764;-61
2021/03/30 09:55:33;;;;;;;23.30;13.60;;;;;;;;;;5052025;28;20205;-62
2021/03/30 09:58:01;;;;;;;22.67;13.47;;;;;;;;;;5051351;28;20211;-61
2021/03/30 10:00:30;;;;;;;22.40;12.87;;;;;;;;;;5051750;28;20209;-61
2021/03/30 10:02:58;;;;;;;21.90;12.67;;;;;;;;;;5051211;28;20227;-62
2021/03/30 10:05:25;;;;;;;16.07;9.47;;;;;;;;;;5051967;28;20634;-60
2021/03/30 10:07:51;;;;;;;16.40;9.27;;;;;;;;;;5051997;28;20348;-61
2021/03/30 10:10:18;;;;;;;18.37;9.23;;;;;;;;;;5051492;28;20229;-62
2021/03/30 10:12:49;;;;;;;22.10;9.80;;;;;;;;;;5051372;28;20233;-62
2021/03/30 10:15:15;;;;;;;16.83;9.20;;;;;;;;;;5051475;28;20738;-61
2021/03/30 10:17:43;;;;;;;19.53;9.03;;;;;;;;;;5051398;28;20585;-60
2021/03/30 10:20:14;;;;;;;15.57;9.80;;;;;;;;;;5051158;28;20202;-61
2021/03/30 10:22:47;;;;;;;14.07;9.30;;;;;;;;;;5051515;28;20313;-62
2021/03/30 10:25:15;;;;;;;16.83;10.37;;;;;;;;;;5051330;28;20304;-62
2021/03/30 10:27:53;;;;;;;18.13;10.00;;;;;;;;;;5051478;28;20205;-62
2021/03/30 10:30:28;;;;;;;20.17;11.40;;;;;;;;;;5050916;28;20235;-61
2021/03/30 10:32:57;;;;;;;23.43;11.63;;;;;;;;;;5050606;28;20221;-62
2021/03/30 10:35:25;;;;;;;20.07;12.30;;;;;;;;;;5049226;28;20213;-61
2021/03/30 10:37:52;;;;;;;23.27;12.43;;;;;;;;;;5050945;28;20209;-60
2021/03/30 10:40:19;;;;;;;21.87;12.93;;;;;;;;;;5050770;28;20210;-62
2021/03/30 10:42:46;;;;;;;22.47;12.37;;;;;;;;;;5051351;28;20283;-61
2021/03/30 10:45:13;;;;;;;23.50;13.30;;;;;;;;;;5051683;28;20205;-61
2021/03/30 10:47:40;;;;;;;21.07;13.43;;;;;;;;;;5050664;28;20213;-61
2021/03/30 10:50:09;;;;;;;22.27;12.73;;;;;;;;;;5049476;28;20230;-62
2021/03/30 10:52:38;;;;;;;21.73;13.13;;;;;;;;;;5049441;28;20240;-61
2021/03/30 10:55:06;;;;;;;25.70;14.40;;;;;;;;;;5052230;28;20300;-62
2021/03/30 10:57:33;;;;;;;24.07;13.80;;;;;;;;;;5054560;28;20745;-62
2021/03/30 11:00:01;;;;;;;23.40;13.37;;;;;;;;;;5054669;28;20209;-62
2021/03/30 11:02:28;;;;;;;22.80;13.27;;;;;;;;;;5054488;28;20229;-62
2021/03/30 11:04:54;;;;;;;23.93;13.63;;;;;;;;;;5054890;28;20214;-62
2021/03/30 11:07:21;;;;;;;24.63;12.90;;;;;;;;;;5054617;28;20217;-63
2021/03/30 11:09:48;;;;;;;18.00;11.33;;;;;;;;;;5054417;28;20233;-62
2021/03/30 11:12:15;;;;;;;20.77;12.47;;;;;;;;;;5054703;28;20570;-63
2021/03/30 11:14:41;;;;;;;21.63;12.90;;;;;;;;;;5054504;28;20212;-61
2021/03/30 11:17:08;;;;;;;23.83;13.33;;;;;;;;;;5054489;28;20206;-62
2021/03/30 11:19:35;;;;;;;23.77;14.23;;;;;;;;;;5054012;28;20554;-61
2021/03/30 11:22:02;;;;;;;23.13;13.30;;;;;;;;;;5054234;28;20226;-62
2021/03/30 11:24:29;;;;;;;22.43;13.27;;;;;;;;;;5054551;28;20213;-62
2021/03/30 11:26:57;;;;;;;25.47;13.50;;;;;;;;;;5054443;28;20292;-62
2021/03/30 11:29:27;;;;;;;21.40;13.57;;;;;;;;;;5053515;28;20232;-62
2021/03/30 11:34:39;;;;;;;23.57;13.03;;;;;;;;;;5044601;28;20300;-62
2021/03/30 11:37:15;;;;;;;22.90;13.30;;;;;;;;;;5054320;28;20206;-62
2021/03/30 11:39:41;;;;;;;22.57;13.60;;;;;;;;;;5053567;28;20292;-62
2021/03/30 11:42:09;;;;;;;25.03;14.13;;;;;;;;;;5054018;28;20245;-63
2021/03/30 11:44:36;;;;;;;25.90;15.33;;;;;;;;;;5054021;28;20205;-63
2021/03/30 11:47:03;;;;;;;22.93;13.80;;;;;;;;;;5053748;28;20216;-62
2021/03/30 11:49:30;;;;;;;23.40;13.40;;;;;;;;;;5053377;28;20225;-62
2021/03/30 11:51:56;;;;;;;24.20;13.23;;;;;;;;;;5053628;28;20230;-63
2021/03/30 11:54:23;;;;;;;21.93;12.40;;;;;;;;;;5053879;28;20202;-59
2021/03/30 11:56:50;;;;;;;22.93;13.33;;;;;;;;;;5053716;28;20213;-62
2021/03/30 11:59:17;;;;;;;23.83;13.07;;;;;;;;;;5053480;28;20249;-62
2021/03/30 12:01:44;;;;;;;24.10;13.07;;;;;;;;;;5053354;28;20234;-62
2021/03/30 12:04:10;;;;;;;27.20;16.43;;;;;;;;;;5053691;28;20231;-63
2021/03/30 12:06:37;;;;;;;21.40;12.13;;;;;;;;;;5053106;28;20214;-62
2021/03/30 12:09:04;;;;;;;22.87;13.07;;;;;;;;;;5053587;28;20565;-62
2021/03/30 12:11:31;;;;;;;21.63;11.47;;;;;;;;;;5053785;28;20652;-62
2021/03/30 12:13:57;;;;;;;25.10;13.70;;;;;;;;;;5053380;28;20213;-63
2021/03/30 12:16:25;;;;;;;22.57;13.47;;;;;;;;;;5053595;28;20212;-62
2021/03/30 12:18:51;;;;;;;24.83;13.90;;;;;;;;;;5053185;28;20201;-63
2021/03/30 12:21:18;;;;;;;24.70;12.87;;;;;;;;;;5053510;28;20230;-62
2021/03/30 12:23:45;;;;;;;22.20;11.60;;;;;;;;;;5053568;28;20206;-62
2021/03/30 12:26:11;;;;;;;21.67;12.10;;;;;;;;;;5053609;28;20209;-63
2021/03/30 12:28:38;;;;;;;22.33;11.40;;;;;;;;;;5052847;28;20228;-63
2021/03/30 12:31:04;;;;;;;18.90;11.23;;;;;;;;;;5053053;28;20233;-62
2021/03/30 12:33:32;;;;;;;19.90;10.37;;;;;;;;;;5053447;28;20232;-62
2021/03/30 12:35:58;;;;;;;23.20;11.63;;;;;;;;;;5053283;28;20208;-62
2021/03/30 12:38:25;;;;;;;18.67;10.77;;;;;;;;;;5053073;28;20209;-59
2021/03/30 12:40:52;;;;;;;16.83;11.27;;;;;;;;;;5052669;28;20266;-62
2021/03/30 12:43:18;;;;;;;20.00;11.40;;;;;;;;;;5053021;28;20217;-62
2021/03/30 12:45:45;;;;;;;17.70;10.13;;;;;;;;;;5052208;28;20209;-62
2021/03/30 12:48:13;;;;;;;18.00;10.63;;;;;;;;;;5051526;28;20210;-62
2021/03/30 12:50:41;;;;;;;20.03;11.10;;;;;;;;;;5052899;28;20251;-62
2021/03/30 12:53:08;;;;;;;19.13;11.17;;;;;;;;;;5053433;28;20225;-62
2021/03/30 12:55:35;;;;;;;19.43;11.17;;;;;;;;;;5053026;28;20237;-62
2021/03/30 12:58:01;;;;;;;19.10;11.27;;;;;;;;;;5052152;28;20205;-61
2021/03/30 13:00:28;;;;;;;18.90;11.03;;;;;;;;;;5051197;28;20551;-63
2021/03/30 13:02:54;;;;;;;20.93;11.10;;;;;;;;;;5052508;28;20236;-62
2021/03/30 13:05:21;;;;;;;20.37;11.83;;;;;;;;;;5052641;28;20205;-62
2021/03/30 13:07:49;;;;;;;22.10;11.43;;;;;;;;;;5052449;28;20202;-62
2021/03/30 13:10:16;;;;;;;16.97;10.20;;;;;;;;;;5051978;28;20230;-62
2021/03/30 13:12:42;;;;;;;24.87;11.97;;;;;;;;;;5052158;28;20251;-63
2021/03/30 13:15:12;;;;;;;19.43;11.30;;;;;;;;;;5052714;28;20213;-62
2021/03/30 13:17:39;;;;;;;19.80;11.30;;;;;;;;;;5051704;28;20216;-62
2021/03/30 13:20:06;;;;;;;21.43;11.50;;;;;;;;;;5052299;28;20206;-61
2021/03/30 13:22:33;;;;;;;18.40;10.37;;;;;;;;;;5051933;28;20266;-62
2021/03/30 13:25:03;;;;;;;21.83;12.13;;;;;;;;;;5052101;28;20239;-61
2021/03/30 13:27:30;;;;;;;20.40;11.50;;;;;;;;;;5051898;28;20213;-62
2021/03/30 13:29:56;;;;;;;20.10;11.50;;;;;;;;;;5051916;28;20233;-62
2021/03/30 13:32:23;;;;;;;24.23;12.30;;;;;;;;;;5051886;28;20628;-62
2021/03/30 13:34:50;;;;;;;18.07;10.73;;;;;;;;;;5051839;28;20221;-62
2021/03/30 13:37:18;;;;;;;26.70;11.73;;;;;;;;;;5051967;28;20205;-62
2021/03/30 13:39:45;;;;;;;17.63;9.73;;;;;;;;;;5051198;28;20201;-62
2021/03/30 13:42:13;;;;;;;18.17;10.40;;;;;;;;;;5051757;28;20229;-62
2021/03/30 13:44:40;;;;;;;21.87;11.23;;;;;;;;;;5051835;28;20213;-62
2021/03/30 13:47:09;;;;;;;19.30;10.73;;;;;;;;;;5052061;28;20206;-61
2021/03/30 13:49:37;;;;;;;19.47;10.43;;;;;;;;;;5051334;28;20283;-62
2021/03/30 13:52:04;;;;;;;18.40;11.00;;;;;;;;;;5051761;28;20225;-62
2021/03/30 13:54:31;;;;;;;19.77;11.13;;;;;;;;;;5051526;28;20811;-62
2021/03/30 13:56:57;;;;;;;18.53;10.97;;;;;;;;;;5051933;28;20201;-62
2021/03/30 13:59:25;;;;;;;18.17;10.47;;;;;;;;;;5051217;28;20591;-62
2021/03/30 14:01:52;;;;;;;18.53;10.13;;;;;;;;;;5051758;28;20228;-62
2021/03/30 14:04:19;;;;;;;18.77;10.10;;;;;;;;;;5052061;28;20221;-62
2021/03/30 14:06:46;;;;;;;20.50;10.27;;;;;;;;;;5051267;28;20263;-62
2021/03/30 14:09:12;;;;;;;16.77;10.33;;;;;;;;;;5051640;28;20221;-61
2021/03/30 14:11:44;;;;;;;21.17;9.97;;;;;;;;;;5051396;28;20597;-62
2021/03/30 14:14:13;;;;;;;21.00;11.67;;;;;;;;;;5051980;28;20213;-62
2021/03/30 14:16:47;;;;;;;22.33;10.37;;;;;;;;;;5047191;28;20749;-62
2021/03/30 14:19:18;;;;;;;18.97;11.03;;;;;;;;;;5057874;28;20662;-62
2021/03/30 14:21:47;;;;;;;18.67;10.77;;;;;;;;;;5064951;28;20257;-62
2021/03/30 14:24:21;;;;;;;17.93;9.97;;;;;;;;;;5051064;28;20231;-62
2021/03/30 14:26:48;;;;;;;21.63;10.90;;;;;;;;;;5051021;28;20300;-64
2021/03/30 14:29:14;;;;;;;20.90;10.70;;;;;;;;;;5051151;28;20587;-64
2021/03/30 14:31:43;;;;;;;18.83;10.70;;;;;;;;;;5054570;28;20271;-66